Gwynn Oak, Maryland
Current Conditions -  °F | °C
As of 9:54 PM on Friday 21 Nov 2014 (Local Time) from KBWI Reporting Station
Clear Clear  
Wind Chill: -4°   Ceiling: Unl
Heat Index: -4°   Visibility: 10mi
Dew Point: -12°   Wind: 0mph
Humidity: 57%   Direction: NA
Pressure: 30.54"   Gusts: NA
Location:  39.32°N, 76.73°W
Report Text: KBWI 220254Z 00000KT 10SM CLR M04/M12 A3054 RMK AO2 SLP345 T10441117 53003
Loading
Personal Weather Stations






























Interactive Weather Map New forecast layout! Learn more

10-Day Weather Forecast

Advertisements
Track Severe Weather on mobile